Thunder radar more information blitzortung!


Radar de pluja more information rain snow radar


Visita la nostra xarxa de llocs de meteo:

Template documentation
and downloads

And another site



Extreme low temperature From: 13-12-2017 09:00 Until: 09:59 warning for: Extreme low temperature Level: Yellow info button

Pagina Historial Weather Underground text

Diari Resum Juny 19, 2017 Unitats:  Mètric    Imperial   Tant
« Previous Dia
SegĂźent Dia »
Diari Setmana Mensual Anual Personalitzada
  Maxima: Minima: Media:
Temperatura: 32.1 °C 19.5 °C 27.1 °C
Punt de rosada: 18.7 °C 13.2 °C 16.4 °C
Humitat: 82 % 35 % 54 %
Wind Speed: 22.2 km/h 0.0 km/h 8.3 km/h
RĂ fegues de vent: 22.2 km/h - -
Vent:- - SSE
Pression baro: 1018.8 hPa 1014.8 hPa -
Precipitacions: 0.0 mm    
Historical Graphs
 
 
Dades de taula per Juny 19, 2017
Temps Temperatura Punt de rosada Pression baro Vent Wind Speed RĂ fegues de vent Humitat Rainfall Rate (Hourly)
00:00 20.2 °C 16.2 °C 1015.8 hPa Calm   3.2 km/h 78 % 0.0 mm
00:01 23.4 °C 17.4 °C 1015.8 hPa NNE 3.7 km/h 3.7 km/h 69 % 0.0 mm
00:10 20.1 °C 16.2 °C 1015.8 hPa NNE 1.6 km/h 1.6 km/h 78 % 0.0 mm
00:20 20.0 °C 16.1 °C 1015.8 hPa Calm   3.2 km/h 78 % 0.0 mm
00:30 19.9 °C 15.7 °C 1015.8 hPa NNE 1.6 km/h 3.2 km/h 77 % 0.0 mm
00:40 19.8 °C 15.8 °C 1015.8 hPa Calm   3.2 km/h 78 % 0.0 mm
00:50 19.7 °C 15.8 °C 1015.8 hPa NNE 1.6 km/h 3.2 km/h 78 % 0.0 mm
01:00 19.7 °C 15.8 °C 1015.8 hPa NE 1.6 km/h 1.6 km/h 78 % 0.0 mm
01:10 19.7 °C 15.8 °C 1015.8 hPa Calm   1.6 km/h 78 % 0.0 mm
01:20 19.7 °C 15.8 °C 1015.8 hPa Calm   1.6 km/h 78 % 0.0 mm
01:30 19.6 °C 15.7 °C 1015.8 hPa Calm   3.2 km/h 78 % 0.0 mm
01:40 19.5 °C 15.6 °C 1015.8 hPa NNE 1.6 km/h 1.6 km/h 78 % 0.0 mm
01:50 19.6 °C 15.7 °C 1015.8 hPa Calm     78 % 0.0 mm
02:00 19.7 °C 15.8 °C 1015.8 hPa Calm   3.2 km/h 78 % 0.0 mm
02:10 19.6 °C 15.7 °C 1015.8 hPa Calm   1.6 km/h 78 % 0.0 mm
02:20 19.8 °C 15.8 °C 1016.8 hPa SW 1.6 km/h 3.2 km/h 78 % 0.0 mm
02:30 19.9 °C 15.9 °C 1016.8 hPa Calm   3.2 km/h 78 % 0.0 mm
02:40 20.6 °C 16.6 °C 1016.8 hPa SSW 1.6 km/h 3.2 km/h 78 % 0.0 mm
02:50 20.7 °C 16.5 °C 1017.8 hPa Calm   3.2 km/h 77 % 0.0 mm
03:00 21.1 °C 16.7 °C 1017.8 hPa Calm   1.6 km/h 76 % 0.0 mm
03:10 21.7 °C 17.1 °C 1017.8 hPa East 1.6 km/h 3.2 km/h 75 % 0.0 mm
03:20 22.0 °C 16.9 °C 1017.8 hPa ENE 1.6 km/h 4.8 km/h 73 % 0.0 mm
03:30 22.1 °C 16.6 °C 1017.8 hPa ENE 3.2 km/h 4.8 km/h 71 % 0.0 mm
03:40 22.6 °C 16.8 °C 1017.8 hPa ENE 3.2 km/h 4.8 km/h 70 % 0.0 mm
03:50 22.9 °C 16.9 °C 1017.8 hPa East 1.6 km/h 4.8 km/h 69 % 0.0 mm
04:00 23.4 °C 16.9 °C 1017.8 hPa ENE 4.8 km/h 4.8 km/h 67 % 0.0 mm
04:10 23.4 °C 16.4 °C 1017.8 hPa East 4.8 km/h 4.8 km/h 65 % 0.0 mm
04:20 23.8 °C 16.6 °C 1018.8 hPa East 3.2 km/h 6.4 km/h 64 % 0.0 mm
04:30 24.3 °C 16.6 °C 1018.8 hPa ENE 4.8 km/h 6.4 km/h 62 % 0.0 mm
04:40 24.5 °C 16.2 °C 1017.8 hPa ENE 3.2 km/h 9.7 km/h 60 % 0.0 mm
04:50 24.6 °C 15.8 °C 1017.8 hPa East 8.0 km/h 8.0 km/h 58 % 0.0 mm
05:00 25.0 °C 15.9 °C 1017.8 hPa East 4.8 km/h 6.4 km/h 57 % 0.0 mm
05:10 25.3 °C 15.6 °C 1017.8 hPa ENE 1.6 km/h 8.0 km/h 55 % 0.0 mm
05:20 25.9 °C 16.2 °C 1017.8 hPa ENE 3.2 km/h 8.0 km/h 55 % 0.0 mm
05:30 26.7 °C 16.9 °C 1017.8 hPa East 4.8 km/h 6.4 km/h 55 % 0.0 mm
05:40 26.3 °C 16.2 °C 1016.8 hPa ESE 4.8 km/h 9.7 km/h 54 % 0.0 mm
05:50 26.6 °C 16.5 °C 1017.8 hPa East 3.2 km/h 9.7 km/h 54 % 0.0 mm
06:00 27.2 °C 16.5 °C 1017.8 hPa East 3.2 km/h 9.7 km/h 52 % 0.0 mm
06:10 27.0 °C 16.3 °C 1017.8 hPa East 4.8 km/h 8.0 km/h 52 % 0.0 mm
06:20 27.4 °C 16.4 °C 1017.8 hPa ESE 4.8 km/h 11.3 km/h 51 % 0.0 mm
06:30 27.8 °C 17.1 °C 1017.8 hPa East 3.2 km/h 9.7 km/h 52 % 0.0 mm
06:40 27.8 °C 16.7 °C 1017.8 hPa East 8.0 km/h 11.3 km/h 51 % 0.0 mm
06:50 28.0 °C 16.9 °C 1017.8 hPa ESE 4.8 km/h 9.7 km/h 51 % 0.0 mm
07:00 28.4 °C 17.3 °C 1017.8 hPa ESE 9.7 km/h 12.9 km/h 51 % 0.0 mm
07:10 28.7 °C 17.6 °C 1017.8 hPa East 8.0 km/h 8.0 km/h 51 % 0.0 mm
07:20 28.9 °C 17.4 °C 1017.8 hPa East 9.7 km/h 9.7 km/h 50 % 0.0 mm
07:30 29.7 °C 16.8 °C 1017.8 hPa East 4.8 km/h 16.1 km/h 46 % 0.0 mm
12:40 29.3 °C 16.8 °C 1017.8 hPa ESE 13.0 km/h 13.0 km/h 47 % 0.0 mm
12:41 29.3 °C 16.8 °C 1017.8 hPa East 14.8 km/h 14.8 km/h 47 % 0.0 mm
12:46 29.4 °C 17.2 °C 1017.8 hPa NE 20.4 km/h 20.4 km/h 48 % 0.0 mm
12:51 29.4 °C 17.6 °C 1017.8 hPa NE 16.4 km/h 16.4 km/h 49 % 0.0 mm
12:56 29.3 °C 17.5 °C 1017.8 hPa ESE 16.7 km/h 16.7 km/h 49 % 0.0 mm
13:01 29.1 °C 17.3 °C 1017.8 hPa NE 11.1 km/h 11.1 km/h 49 % 0.0 mm
13:06 29.3 °C 17.5 °C 1017.8 hPa East 19.8 km/h 19.8 km/h 49 % 0.0 mm
13:11 29.6 °C 17.8 °C 1017.8 hPa East 20.9 km/h 20.9 km/h 49 % 0.0 mm
13:16 29.3 °C 17.5 °C 1017.8 hPa SSE 22.2 km/h 22.2 km/h 49 % 0.0 mm
13:21 29.6 °C 17.8 °C 1017.8 hPa ESE 12.6 km/h 12.6 km/h 49 % 0.0 mm
13:22 29.6 °C 17.8 °C 1017.8 hPa ESE 15.1 km/h 15.1 km/h 49 % 0.0 mm
13:27 29.1 °C 17.3 °C 1017.8 hPa ENE 15.6 km/h 15.6 km/h 49 % 0.0 mm
13:32 29.1 °C 17.3 °C 1016.8 hPa ESE 13.7 km/h 13.7 km/h 49 % 0.0 mm
13:37 29.3 °C 17.8 °C 1016.8 hPa ESE 17.2 km/h 17.2 km/h 50 % 0.0 mm
13:42 29.6 °C 18.1 °C 1016.8 hPa ESE 14.8 km/h 14.8 km/h 50 % 0.0 mm
13:47 29.5 °C 17.7 °C 1017.8 hPa East 11.9 km/h 11.9 km/h 49 % 0.0 mm
13:52 29.5 °C 17.3 °C 1017.8 hPa SE 13.0 km/h 13.0 km/h 48 % 0.0 mm
13:57 29.4 °C 17.2 °C 1017.8 hPa East 17.2 km/h 17.2 km/h 48 % 0.0 mm
14:02 29.8 °C 17.6 °C 1016.8 hPa NE 9.5 km/h 9.5 km/h 48 % 0.0 mm
14:07 29.9 °C 17.7 °C 1016.8 hPa East 13.0 km/h 13.0 km/h 48 % 0.0 mm
14:12 30.1 °C 17.6 °C 1016.8 hPa SSE 13.0 km/h 13.0 km/h 47 % 0.0 mm
14:17 30.1 °C 17.2 °C 1017.8 hPa ESE 16.7 km/h 16.7 km/h 46 % 0.0 mm
14:22 29.9 °C 17.4 °C 1017.8 hPa ESE 14.8 km/h 14.8 km/h 47 % 0.0 mm
14:27 29.7 °C 17.2 °C 1017.8 hPa ESE 18.5 km/h 18.5 km/h 47 % 0.0 mm
14:32 29.4 °C 16.9 °C 1017.8 hPa ESE 13.0 km/h 13.0 km/h 47 % 0.0 mm
14:37 29.9 °C 17.7 °C 1017.8 hPa ENE 16.7 km/h 16.7 km/h 48 % 0.0 mm
14:42 29.8 °C 17.3 °C 1017.8 hPa ENE 18.5 km/h 18.5 km/h 47 % 0.0 mm
14:47 29.8 °C 17.6 °C 1017.8 hPa ESE 19.0 km/h 19.0 km/h 48 % 0.0 mm
14:52 29.5 °C 17.3 °C 1017.8 hPa SSE 14.8 km/h 14.8 km/h 48 % 0.0 mm
14:57 30.0 °C 17.8 °C 1017.8 hPa ESE 13.0 km/h 13.0 km/h 48 % 0.0 mm
15:02 29.9 °C 18.1 °C 1017.8 hPa ESE 11.1 km/h 11.1 km/h 49 % 0.0 mm
15:07 29.8 °C 17.9 °C 1017.8 hPa ESE 18.5 km/h 18.5 km/h 49 % 0.0 mm
15:12 29.8 °C 17.9 °C 1017.8 hPa ESE 18.5 km/h 18.5 km/h 49 % 0.0 mm
15:17 30.0 °C 18.1 °C 1017.8 hPa SSE 13.0 km/h 13.0 km/h 49 % 0.0 mm
15:22 29.8 °C 17.6 °C 1017.8 hPa ESE 13.0 km/h 13.0 km/h 48 % 0.0 mm
15:27 30.0 °C 17.8 °C 1017.8 hPa ESE 16.9 km/h 16.9 km/h 48 % 0.0 mm
15:32 30.2 °C 17.7 °C 1017.8 hPa SE 13.0 km/h 13.0 km/h 47 % 0.0 mm
15:37 30.1 °C 17.9 °C 1017.8 hPa SSE 13.0 km/h 13.0 km/h 48 % 0.0 mm
15:42 31.0 °C 18.0 °C 1017.8 hPa East 9.3 km/h 9.3 km/h 46 % 0.0 mm
15:47 31.0 °C 17.7 °C 1017.8 hPa SSE 10.0 km/h 10.0 km/h 45 % 0.0 mm
15:52 30.4 °C 18.2 °C 1017.8 hPa ESE 16.7 km/h 16.7 km/h 48 % 0.0 mm
15:57 30.0 °C 17.4 °C 1017.8 hPa SE 18.5 km/h 18.5 km/h 47 % 0.0 mm
16:02 30.0 °C 17.4 °C 1017.8 hPa East 15.1 km/h 15.1 km/h 47 % 0.0 mm
16:07 29.8 °C 17.9 °C 1017.8 hPa ENE 14.8 km/h 14.8 km/h 49 % 0.0 mm
16:12 30.1 °C 17.9 °C 1017.8 hPa ESE 14.8 km/h 14.8 km/h 48 % 0.0 mm
16:17 30.0 °C 17.8 °C 1017.8 hPa ESE 16.7 km/h 16.7 km/h 48 % 0.0 mm
16:22 29.8 °C 17.9 °C 1017.8 hPa ESE 16.7 km/h 16.7 km/h 49 % 0.0 mm
16:27 29.8 °C 17.9 °C 1017.8 hPa ENE 14.8 km/h 14.8 km/h 49 % 0.0 mm
16:32 29.8 °C 17.9 °C 1016.8 hPa SE 18.5 km/h 18.5 km/h 49 % 0.0 mm
16:37 29.9 °C 18.1 °C 1016.8 hPa SE 13.0 km/h 13.0 km/h 49 % 0.0 mm
16:42 30.1 °C 18.2 °C 1016.8 hPa ENE 10.3 km/h 10.3 km/h 49 % 0.0 mm
16:47 29.8 °C 18.3 °C 1017.8 hPa NE 16.7 km/h 16.7 km/h 50 % 0.0 mm
16:52 29.8 °C 18.3 °C 1017.8 hPa ESE 20.4 km/h 20.4 km/h 50 % 0.0 mm
16:57 30.3 °C 18.1 °C 1017.8 hPa SE 11.1 km/h 11.1 km/h 48 % 0.0 mm
17:02 30.7 °C 18.1 °C 1016.8 hPa SW 16.4 km/h 16.4 km/h 47 % 0.0 mm
17:07 31.3 °C 18.3 °C 1016.8 hPa SE 11.1 km/h 11.1 km/h 46 % 0.0 mm
17:12 30.9 °C 18.3 °C 1016.8 hPa NE 11.1 km/h 11.1 km/h 47 % 0.0 mm
17:17 31.7 °C 18.7 °C 1016.8 hPa South 7.4 km/h 7.4 km/h 46 % 0.0 mm
17:22 31.3 °C 18.3 °C 1016.8 hPa ESE 11.9 km/h 11.9 km/h 46 % 0.0 mm
17:27 31.4 °C 18.4 °C 1016.8 hPa SE 9.3 km/h 9.3 km/h 46 % 0.0 mm
17:32 31.1 °C 17.8 °C 1015.8 hPa South 9.3 km/h 9.3 km/h 45 % 0.0 mm
17:37 31.0 °C 18.0 °C 1015.8 hPa ESE 9.3 km/h 9.3 km/h 46 % 0.0 mm
17:42 30.8 °C 18.2 °C 1015.8 hPa SSE 9.3 km/h 9.3 km/h 47 % 0.0 mm
17:47 31.0 °C 18.0 °C 1015.8 hPa SSW 9.3 km/h 9.3 km/h 46 % 0.0 mm
17:52 31.8 °C 18.4 °C 1015.8 hPa South 9.3 km/h 9.3 km/h 45 % 0.0 mm
17:57 31.4 °C 17.3 °C 1015.8 hPa SSE 7.4 km/h 7.4 km/h 43 % 0.0 mm
18:02 30.9 °C 17.9 °C 1015.8 hPa ESE 3.7 km/h 3.7 km/h 46 % 0.0 mm
18:07 30.7 °C 18.1 °C 1015.8 hPa SSW 9.3 km/h 9.3 km/h 47 % 0.0 mm
18:12 31.1 °C 18.1 °C 1015.8 hPa SSE 16.7 km/h 16.7 km/h 46 % 0.0 mm
18:17 31.2 °C 18.2 °C 1014.8 hPa SSW 5.6 km/h 5.6 km/h 46 % 0.0 mm
18:22 31.5 °C 17.8 °C 1014.8 hPa ESE 9.5 km/h 9.5 km/h 44 % 0.0 mm
18:27 31.6 °C 16.7 °C 1014.8 hPa SSW 9.3 km/h 9.3 km/h 41 % 0.0 mm
18:32 32.1 °C 17.2 °C 1014.8 hPa SW 13.0 km/h 13.0 km/h 41 % 0.0 mm
18:37 31.4 °C 16.9 °C 1014.8 hPa SE 13.0 km/h 13.0 km/h 42 % 0.0 mm
18:42 31.6 °C 16.7 °C 1014.8 hPa West 3.7 km/h 3.7 km/h 41 % 0.0 mm
18:47 31.7 °C 16.1 °C 1015.8 hPa WSW 9.3 km/h 9.3 km/h 39 % 0.0 mm
18:52 31.9 °C 16.6 °C 1015.8 hPa WSW 7.4 km/h 7.4 km/h 40 % 0.0 mm
18:57 31.4 °C 15.4 °C 1015.8 hPa WSW 9.3 km/h 9.3 km/h 38 % 0.0 mm
19:02 31.7 °C 15.6 °C 1015.8 hPa SW 9.7 km/h 9.7 km/h 38 % 0.0 mm
19:07 31.3 °C 14.9 °C 1015.8 hPa South 13.0 km/h 13.0 km/h 37 % 0.0 mm
19:12 30.9 °C 14.5 °C 1015.8 hPa SW 9.3 km/h 9.3 km/h 37 % 0.0 mm
19:17 31.0 °C 14.2 °C 1015.8 hPa SW 3.7 km/h 3.7 km/h 36 % 0.0 mm
19:22 31.1 °C 14.7 °C 1015.8 hPa SW 7.4 km/h 7.4 km/h 37 % 0.0 mm
19:27 30.9 °C 14.1 °C 1015.8 hPa SSE 9.7 km/h 9.7 km/h 36 % 0.0 mm
19:32 30.5 °C 13.7 °C 1014.8 hPa SW 9.3 km/h 9.3 km/h 36 % 0.0 mm
19:37 30.5 °C 13.7 °C 1014.8 hPa SSW 7.4 km/h 7.4 km/h 36 % 0.0 mm
19:42 30.6 °C 13.8 °C 1014.8 hPa WSW 7.4 km/h 7.4 km/h 36 % 0.0 mm
19:47 30.4 °C 13.2 °C 1015.8 hPa SW 13.0 km/h 13.0 km/h 35 % 0.0 mm
19:52 30.1 °C 13.4 °C 1015.8 hPa SW 3.7 km/h 3.7 km/h 36 % 0.0 mm
19:57 30.1 °C 13.4 °C 1015.8 hPa South 6.1 km/h 6.1 km/h 36 % 0.0 mm
20:02 29.7 °C 13.4 °C 1015.8 hPa South 11.1 km/h 11.1 km/h 37 % 0.0 mm
20:07 29.6 °C 13.4 °C 1015.8 hPa WSW 7.4 km/h 7.4 km/h 37 % 0.0 mm
20:12 29.4 °C 13.2 °C 1015.8 hPa South 7.4 km/h 7.4 km/h 37 % 0.0 mm
20:17 29.1 °C 13.3 °C 1015.8 hPa SW 11.1 km/h 11.1 km/h 38 % 0.0 mm
20:22 29.1 °C 13.3 °C 1015.8 hPa SSW 5.6 km/h 5.6 km/h 38 % 0.0 mm
20:27 28.9 °C 13.6 °C 1015.8 hPa South 11.9 km/h 11.9 km/h 39 % 0.0 mm
20:32 28.8 °C 13.8 °C 1015.8 hPa SW 8.7 km/h 8.7 km/h 40 % 0.0 mm
20:37 28.6 °C 13.7 °C 1015.8 hPa SSW 7.4 km/h 7.4 km/h 40 % 0.0 mm
20:42 28.4 °C 13.9 °C 1015.8 hPa South 7.9 km/h 7.9 km/h 41 % 0.0 mm
20:47 28.2 °C 14.1 °C 1015.8 hPa SW 9.3 km/h 9.3 km/h 42 % 0.0 mm
20:52 28.0 °C 13.9 °C 1015.8 hPa South 5.6 km/h 5.6 km/h 42 % 0.0 mm
20:57 27.8 °C 13.7 °C 1015.8 hPa South 13.0 km/h 13.0 km/h 42 % 0.0 mm
21:02 27.7 °C 14.0 °C 1015.8 hPa WSW 5.6 km/h 5.6 km/h 43 % 0.0 mm
21:07 27.5 °C 13.8 °C 1015.8 hPa SW 5.6 km/h 5.6 km/h 43 % 0.0 mm
21:12 27.3 °C 14.0 °C 1015.8 hPa SW 7.4 km/h 7.4 km/h 44 % 0.0 mm
21:17 27.1 °C 13.8 °C 1016.8 hPa SW 5.6 km/h 5.6 km/h 44 % 0.0 mm
21:22 27.0 °C 14.1 °C 1016.8 hPa SSE 5.6 km/h 5.6 km/h 45 % 0.0 mm
21:27 26.8 °C 14.2 °C 1016.8 hPa SW 3.7 km/h 3.7 km/h 46 % 0.0 mm
21:32 26.6 °C 14.3 °C 1016.8 hPa SSW 5.0 km/h 5.0 km/h 47 % 0.0 mm
21:37 26.5 °C 14.3 °C 1016.8 hPa West 7.4 km/h 7.4 km/h 47 % 0.0 mm
21:42 26.3 °C 14.4 °C 1016.8 hPa WSW 7.4 km/h 7.4 km/h 48 % 0.0 mm
21:47 26.2 °C 14.3 °C 1017.8 hPa South 5.6 km/h 5.6 km/h 48 % 0.0 mm
21:52 25.9 °C 14.4 °C 1017.8 hPa SW 5.6 km/h 5.6 km/h 49 % 0.0 mm
21:57 25.7 °C 14.2 °C 1017.8 hPa SSW 6.4 km/h 6.4 km/h 49 % 0.0 mm
22:02 25.6 °C 14.4 °C 1017.8 hPa SSW 7.4 km/h 7.4 km/h 50 % 0.0 mm
22:07 25.4 °C 14.5 °C 1017.8 hPa SSW 9.3 km/h 9.3 km/h 51 % 0.0 mm
22:12 25.2 °C 14.7 °C 1017.8 hPa SW 9.3 km/h 9.3 km/h 52 % 0.0 mm
22:17 25.1 °C 14.8 °C 1016.8 hPa SW 7.4 km/h 7.4 km/h 53 % 0.0 mm
22:22 25.0 °C 14.8 °C 1016.8 hPa SSW 7.4 km/h 7.4 km/h 53 % 0.0 mm
22:27 24.9 °C 15.2 °C 1016.8 hPa SW 5.6 km/h 5.6 km/h 55 % 0.0 mm
22:32 24.8 °C 15.2 °C 1017.8 hPa WSW 5.6 km/h 5.6 km/h 55 % 0.0 mm
22:37 24.6 °C 15.2 °C 1017.8 hPa SW 7.4 km/h 7.4 km/h 56 % 0.0 mm
22:40 21.8 °C 18.4 °C 1017.8 hPa Calm   1.6 km/h 81 % 0.0 mm
22:42 24.6 °C 15.2 °C 1017.8 hPa SW 5.6 km/h 5.6 km/h 56 % 0.0 mm
22:47 24.5 °C 15.4 °C 1018.8 hPa SW 3.7 km/h 4.2 km/h 57 % 0.0 mm
22:50 21.7 °C 18.3 °C 1017.8 hPa Calm   1.6 km/h 81 % 0.0 mm
22:52 24.3 °C 15.5 °C 1018.8 hPa WSW 5.6 km/h 5.6 km/h 58 % 0.0 mm
22:53 24.3 °C 15.5 °C 1018.8 hPa WSW 5.6 km/h 5.6 km/h 58 % 0.0 mm
22:58 24.3 °C 15.5 °C 1018.8 hPa WSW 3.9 km/h 3.9 km/h 58 % 0.0 mm
23:00 21.7 °C 18.5 °C 1017.8 hPa Calm     82 % 0.0 mm
23:03 24.2 °C 15.7 °C 1017.8 hPa SW 3.7 km/h 3.7 km/h 59 % 0.0 mm
23:08 24.1 °C 15.8 °C 1017.8 hPa SW 3.9 km/h 3.9 km/h 60 % 0.0 mm
23:10 21.5 °C 18.1 °C 1016.8 hPa Calm   1.6 km/h 81 % 0.0 mm
23:13 24.0 °C 16.0 °C 1017.8 hPa SW 3.7 km/h 3.7 km/h 61 % 0.0 mm
23:18 23.9 °C 16.2 °C 1017.8 hPa SSW 4.2 km/h 4.2 km/h 62 % 0.0 mm
23:20 21.4 °C 18.0 °C 1016.8 hPa Calm   1.6 km/h 81 % 0.0 mm
23:23 23.9 °C 16.7 °C 1017.8 hPa WSW 5.6 km/h 5.6 km/h 64 % 0.0 mm
23:28 23.8 °C 16.6 °C 1017.8 hPa SW 4.2 km/h 4.2 km/h 64 % 0.0 mm
23:30 21.2 °C 17.8 °C 1016.8 hPa SW 1.6 km/h 3.2 km/h 81 % 0.0 mm
23:33 23.7 °C 16.7 °C 1017.8 hPa SW 5.6 km/h 5.6 km/h 65 % 0.0 mm
23:38 23.7 °C 17.2 °C 1017.8 hPa SW 4.2 km/h 4.2 km/h 67 % 0.0 mm
23:40 21.0 °C 17.4 °C 1015.8 hPa SW 3.2 km/h 3.2 km/h 80 % 0.0 mm
23:43 23.6 °C 17.1 °C 1017.8 hPa SW 3.7 km/h 3.7 km/h 67 % 0.0 mm
23:44 23.6 °C 17.1 °C 1017.8 hPa WSW 3.9 km/h 3.9 km/h 67 % 0.0 mm
23:49 23.5 °C 17.3 °C 1017.8 hPa SW 3.7 km/h 3.7 km/h 68 % 0.0 mm
23:50 20.9 °C 17.5 °C 1015.8 hPa SW 1.6 km/h 3.2 km/h 81 % 0.0 mm
23:54 23.5 °C 17.5 °C 1017.8 hPa SW 3.7 km/h 3.7 km/h 69 % 0.0 mm
23:59 23.4 °C 17.6 °C 1017.8 hPa SW 1.9 km/h 2.3 km/h 70 % 0.0 mm
Meteo Sesrovires
Elogis d' Weather Underground - 3.5 mb

Guio original per  Jim McMurry - jmcmurry@mwt.net Adaptat per a la plantilla per  Wim van der Kuil - Leuven-Template.eu

Trobareu la nostra informacio del temps tambe a:

Weather Underground

AWEKAS